createdAt,value
2023-09-15T00:01:45.900Z,3.70
2023-09-15T00:04:13.328Z,6.60
2023-09-15T00:06:40.790Z,5.10
2023-09-15T00:09:16.392Z,3.45
2023-09-15T00:11:43.669Z,8.65
2023-09-15T00:14:12.154Z,5.72
2023-09-15T00:16:40.942Z,8.20
2023-09-15T00:19:09.201Z,4.68
2023-09-15T00:21:35.739Z,5.85
2023-09-15T00:24:02.962Z,4.95
2023-09-15T00:26:33.461Z,3.90
2023-09-15T00:29:03.779Z,3.22
2023-09-15T00:31:30.468Z,5.32
2023-09-15T00:33:56.956Z,6.18
2023-09-15T00:36:23.595Z,4.13
2023-09-15T00:38:50.440Z,4.15
2023-09-15T00:41:16.993Z,4.68
2023-09-15T00:43:43.398Z,4.82
2023-09-15T00:46:12.238Z,3.20
2023-09-15T00:48:40.876Z,5.97
2023-09-15T00:51:08.884Z,5.05
2023-09-15T00:53:40.055Z,7.32
2023-09-15T00:56:09.243Z,8.57
2023-09-15T00:58:39.953Z,8.07
2023-09-15T01:01:07.715Z,6.05
2023-09-15T01:03:39.202Z,5.35
2023-09-15T01:06:07.322Z,6.68
2023-09-15T01:08:35.545Z,4.65
2023-09-15T01:11:05.483Z,5.97
2023-09-15T01:13:34.039Z,5.15
2023-09-15T01:16:15.715Z,4.90
2023-09-15T01:18:59.234Z,7.38
2023-09-15T01:21:41.920Z,7.43
2023-09-15T01:24:30.600Z,5.38
2023-09-15T01:27:07.397Z,4.53
2023-09-15T01:29:54.957Z,4.95
2023-09-15T01:32:23.253Z,5.15
2023-09-15T01:34:52.668Z,5.65
2023-09-15T01:37:20.768Z,4.07
2023-09-15T01:39:47.803Z,4.32
2023-09-15T01:42:14.349Z,5.53
2023-09-15T01:44:40.789Z,6.68
2023-09-15T01:47:10.083Z,4.78
2023-09-15T01:49:38.961Z,6.55
2023-09-15T01:52:06.085Z,5.13
2023-09-15T01:54:32.597Z,5.63
2023-09-15T01:56:59.339Z,4.28
2023-09-15T01:59:25.899Z,5.25
2023-09-15T02:01:52.511Z,5.90
2023-09-15T02:04:19.129Z,6.10
2023-09-15T02:06:45.612Z,4.18
2023-09-15T02:09:15.620Z,9.23
2023-09-15T02:11:42.075Z,6.15
2023-09-15T02:14:08.484Z,5.93
2023-09-15T02:16:35.012Z,6.13
2023-09-15T02:19:01.816Z,5.32
2023-09-15T02:21:28.281Z,9.38
2023-09-15T02:23:54.725Z,5.53
2023-09-15T02:26:22.376Z,5.30
2023-09-15T02:28:49.103Z,4.93
2023-09-15T02:31:15.872Z,3.65
2023-09-15T02:33:42.407Z,4.13
2023-09-15T02:36:09.010Z,5.50
2023-09-15T02:38:35.877Z,6.50
2023-09-15T02:41:02.347Z,5.82
2023-09-15T02:43:28.793Z,6.32
2023-09-15T02:45:55.398Z,5.57
2023-09-15T02:48:22.289Z,4.63
2023-09-15T02:50:49.256Z,5.85
2023-09-15T02:53:15.773Z,2.92
2023-09-15T02:55:42.224Z,4.95
2023-09-15T02:58:08.786Z,9.85
2023-09-15T03:00:35.254Z,5.90
2023-09-15T03:03:04.998Z,4.38
2023-09-15T03:05:31.698Z,8.77
2023-09-15T03:07:58.175Z,7.85
2023-09-15T03:10:24.622Z,6.55
2023-09-15T03:12:52.713Z,4.97
2023-09-15T03:15:19.405Z,4.80
2023-09-15T03:17:45.954Z,4.05
2023-09-15T03:20:16.895Z,5.55
2023-09-15T03:22:44.333Z,5.38
2023-09-15T03:25:11.638Z,4.07
2023-09-15T03:27:38.117Z,8.82
2023-09-15T03:30:05.735Z,5.25
2023-09-15T03:32:32.693Z,3.72
2023-09-15T03:34:59.376Z,3.17
2023-09-15T03:37:26.987Z,5.22
2023-09-15T03:39:53.735Z,2.50
2023-09-15T03:42:20.237Z,4.65
2023-09-15T03:44:46.982Z,5.82
2023-09-15T03:47:13.588Z,6.07
2023-09-15T03:49:40.062Z,6.28
2023-09-15T03:52:06.769Z,4.13
2023-09-15T03:54:33.424Z,6.40
2023-09-15T03:56:59.868Z,3.78
2023-09-15T03:59:26.310Z,3.80
2023-09-15T04:01:52.948Z,5.53
2023-09-15T04:04:19.505Z,3.78
2023-09-15T04:06:46.012Z,3.45
2023-09-15T04:09:13.553Z,6.97
2023-09-15T04:11:40.847Z,4.45
2023-09-15T04:14:08.163Z,3.65
2023-09-15T04:16:36.763Z,6.72
2023-09-15T04:19:03.894Z,5.88
2023-09-15T04:21:30.560Z,4.18
2023-09-15T04:23:57.009Z,6.15
2023-09-15T04:26:23.442Z,6.85
2023-09-15T04:28:49.982Z,4.68
2023-09-15T04:31:16.507Z,6.68
2023-09-15T04:33:43.043Z,6.85
2023-09-15T04:36:09.489Z,5.15
2023-09-15T04:38:35.963Z,5.35
2023-09-15T04:41:02.421Z,8.38
2023-09-15T04:43:31.042Z,15.43
2023-09-15T04:45:58.339Z,7.18
2023-09-15T04:48:24.872Z,5.50
2023-09-15T04:50:51.398Z,7.45
2023-09-15T04:53:18.000Z,5.45
2023-09-15T04:55:44.530Z,7.43
2023-09-15T05:06:49.756Z,6.10
2023-09-15T05:09:21.472Z,13.77
2023-09-15T05:11:48.226Z,11.77
2023-09-15T05:14:15.013Z,7.45
2023-09-15T05:16:41.550Z,12.73
2023-09-15T05:19:08.080Z,9.98
2023-09-15T05:21:34.620Z,6.32
2023-09-15T05:24:01.069Z,8.20
2023-09-15T05:26:27.598Z,7.47
2023-09-15T05:28:54.138Z,7.00
2023-09-15T05:31:25.056Z,8.15
2023-09-15T05:33:51.655Z,11.48
2023-09-15T05:36:18.219Z,9.63
2023-09-15T05:38:45.078Z,7.13
2023-09-15T05:41:11.833Z,7.43
2023-09-15T05:43:38.285Z,9.02
2023-09-15T05:46:04.859Z,8.88
2023-09-15T05:48:31.346Z,9.25
2023-09-15T05:50:57.950Z,9.35
2023-09-15T05:53:24.475Z,9.48
2023-09-15T05:55:51.059Z,9.73
2023-09-15T05:58:17.578Z,9.00
2023-09-15T06:00:44.306Z,9.07
2023-09-15T06:03:10.894Z,10.88
2023-09-15T06:05:37.515Z,10.43
2023-09-15T06:08:09.259Z,11.75
2023-09-15T06:10:41.196Z,8.63
2023-09-15T06:13:08.133Z,8.82
2023-09-15T06:15:36.053Z,9.13
2023-09-15T06:18:03.190Z,6.85
2023-09-15T06:20:32.277Z,16.00
2023-09-15T06:22:58.928Z,8.43
2023-09-15T06:25:25.401Z,9.90
2023-09-15T06:27:52.009Z,9.15
2023-09-15T06:30:18.581Z,8.15
2023-09-15T06:32:45.118Z,6.82
2023-09-15T06:35:14.105Z,9.93
2023-09-15T06:37:41.671Z,6.53
2023-09-15T06:40:08.876Z,7.78
2023-09-15T06:42:35.746Z,8.88
2023-09-15T06:45:02.277Z,8.90
2023-09-15T06:47:28.901Z,8.65
2023-09-15T06:49:55.726Z,7.40
2023-09-15T06:52:22.411Z,11.45
2023-09-15T06:54:49.037Z,8.52
2023-09-15T06:57:15.594Z,9.43
2023-09-15T06:59:42.135Z,9.27
2023-09-15T07:02:08.611Z,11.65
2023-09-15T07:04:39.633Z,7.60
2023-09-15T07:07:06.393Z,9.68
2023-09-15T07:09:33.120Z,8.70
2023-09-15T07:11:59.572Z,11.13
2023-09-15T07:14:26.385Z,7.82
2023-09-15T07:16:52.994Z,6.68
2023-09-15T07:19:19.855Z,6.13
2023-09-15T07:21:46.380Z,6.70
2023-09-15T07:24:12.966Z,7.63
2023-09-15T07:26:39.716Z,4.93
2023-09-15T07:29:06.392Z,6.88
2023-09-15T07:31:36.300Z,8.60
2023-09-15T07:34:04.561Z,7.25
2023-09-15T07:36:31.608Z,4.57
2023-09-15T07:38:58.172Z,8.80
2023-09-15T07:41:25.723Z,8.00
2023-09-15T07:43:54.790Z,10.65
2023-09-15T07:46:21.739Z,7.13
2023-09-15T07:48:48.268Z,6.75
2023-09-15T07:51:16.807Z,7.55
2023-09-15T07:53:43.749Z,7.85
2023-09-15T07:56:10.356Z,6.65
2023-09-15T07:58:37.424Z,6.97
2023-09-15T08:01:05.114Z,7.18
2023-09-15T08:03:31.571Z,8.07
2023-09-15T08:05:59.859Z,9.93
2023-09-15T08:08:27.572Z,8.10
2023-09-15T08:10:54.051Z,7.97
2023-09-15T08:13:20.529Z,5.55
2023-09-15T08:15:47.175Z,7.40
2023-09-15T08:18:13.703Z,6.18
2023-09-15T08:20:40.293Z,5.50
2023-09-15T08:23:06.747Z,5.45
2023-09-15T08:25:33.322Z,11.23
2023-09-15T08:28:00.771Z,5.72
2023-09-15T08:30:27.450Z,7.75
2023-09-15T08:32:54.050Z,5.70
2023-09-15T08:35:20.818Z,7.40
2023-09-15T08:37:47.369Z,8.40
2023-09-15T08:40:13.936Z,4.38
2023-09-15T08:42:40.750Z,6.32
2023-09-15T08:45:08.282Z,7.65
2023-09-15T08:47:39.227Z,6.65
2023-09-15T08:50:06.526Z,9.00
2023-09-15T08:52:34.532Z,7.53
2023-09-15T08:55:03.079Z,7.53
2023-09-15T08:57:35.003Z,5.35
2023-09-15T09:00:01.941Z,8.60
2023-09-15T09:02:29.509Z,7.70
2023-09-15T09:04:56.017Z,11.55
2023-09-15T09:07:23.206Z,8.20
2023-09-15T09:09:51.075Z,8.90
2023-09-15T09:12:21.879Z,7.40
2023-09-15T09:14:50.689Z,9.23
2023-09-15T09:17:19.794Z,5.55
2023-09-15T09:19:48.235Z,8.52
2023-09-15T09:22:20.665Z,8.02
2023-09-15T09:24:57.519Z,5.72
2023-09-15T09:27:34.217Z,9.00
2023-09-15T09:30:01.038Z,5.72
2023-09-15T09:32:27.735Z,5.70
2023-09-15T09:34:54.815Z,5.40
2023-09-15T09:37:27.216Z,5.15
2023-09-15T09:39:54.793Z,6.95
2023-09-15T09:42:24.860Z,6.78
2023-09-15T09:44:53.545Z,6.32
2023-09-15T09:47:22.821Z,5.65
2023-09-15T09:49:52.690Z,4.97
2023-09-15T09:52:19.237Z,6.88
2023-09-15T09:54:50.585Z,5.28
2023-09-15T09:57:18.006Z,6.35
2023-09-15T09:59:45.461Z,7.85
2023-09-15T10:02:12.648Z,7.32
2023-09-15T10:04:39.198Z,6.97
2023-09-15T10:07:05.986Z,8.75
2023-09-15T10:09:33.075Z,8.88
2023-09-15T10:12:00.392Z,6.32
2023-09-15T10:14:27.293Z,5.53
2023-09-15T10:16:54.244Z,7.05
2023-09-15T10:19:21.555Z,6.30
2023-09-15T10:21:48.393Z,6.07
2023-09-15T10:24:16.773Z,5.30
2023-09-15T10:26:43.448Z,4.38
2023-09-15T10:29:16.582Z,9.32
2023-09-15T10:31:47.625Z,6.65
2023-09-15T10:34:16.074Z,4.78
2023-09-15T10:36:45.680Z,5.43
2023-09-15T10:39:16.154Z,5.88
2023-09-15T10:41:44.518Z,4.15
2023-09-15T10:44:11.869Z,5.00
2023-09-15T10:46:40.824Z,6.43
2023-09-15T10:49:18.269Z,6.05
2023-09-15T10:52:04.144Z,7.03
2023-09-15T10:54:36.157Z,5.53
2023-09-15T10:57:03.656Z,4.65
2023-09-15T10:59:30.301Z,7.60
2023-09-15T11:01:57.231Z,6.70
2023-09-15T11:04:23.953Z,5.53
2023-09-15T11:06:52.771Z,4.50
2023-09-15T11:09:20.283Z,5.90
2023-09-15T11:11:51.284Z,6.07
2023-09-15T11:14:23.008Z,5.95
2023-09-15T11:16:51.718Z,3.37
2023-09-15T11:19:19.591Z,3.78
2023-09-15T11:21:47.182Z,4.22
2023-09-15T11:24:14.488Z,3.03
2023-09-15T11:26:53.358Z,3.35
2023-09-15T11:29:27.527Z,4.15
2023-09-15T11:31:55.313Z,5.40
2023-09-15T11:34:22.175Z,4.25
2023-09-15T11:36:50.355Z,4.80
2023-09-15T11:39:17.438Z,4.45
2023-09-15T11:41:54.721Z,5.07
2023-09-15T11:44:23.003Z,3.38
2023-09-15T11:46:53.979Z,2.53
2023-09-15T11:49:20.788Z,2.97
2023-09-15T11:51:47.861Z,3.50
2023-09-15T11:54:14.391Z,3.13
2023-09-15T11:56:41.032Z,2.88
2023-09-15T11:59:08.160Z,3.28
2023-09-15T12:01:35.766Z,4.28
2023-09-15T12:04:02.879Z,7.90
2023-09-15T12:06:29.697Z,2.55
2023-09-15T12:08:56.320Z,7.93
2023-09-15T12:11:24.132Z,2.80
2023-09-15T12:13:53.682Z,3.45
2023-09-15T12:16:26.323Z,3.70
2023-09-15T12:18:53.060Z,5.22
2023-09-15T12:21:25.857Z,4.68
2023-09-15T12:23:55.461Z,3.30
2023-09-15T12:26:23.199Z,3.65
2023-09-15T12:28:50.160Z,4.03
2023-09-15T12:31:21.965Z,3.60
2023-09-15T12:33:57.513Z,3.28
2023-09-15T12:36:24.203Z,2.97
2023-09-15T12:38:53.413Z,5.30
2023-09-15T12:41:19.938Z,3.60
2023-09-15T12:43:46.946Z,2.40
2023-09-15T12:46:13.804Z,3.30
2023-09-15T12:48:40.530Z,6.15
2023-09-15T12:51:07.081Z,4.38
2023-09-15T12:53:33.637Z,2.45
2023-09-15T12:56:01.475Z,2.83
2023-09-15T12:58:28.124Z,3.90
2023-09-15T13:00:54.669Z,2.67
2023-09-15T13:03:23.436Z,2.63
2023-09-15T13:05:50.565Z,3.53
2023-09-15T13:08:17.064Z,2.22
2023-09-15T13:10:43.591Z,4.97
2023-09-15T13:13:10.182Z,2.15
2023-09-15T13:15:37.389Z,2.65
2023-09-15T13:18:04.447Z,3.10
2023-09-15T13:20:31.011Z,3.22
2023-09-15T13:22:57.613Z,2.60
2023-09-15T13:25:24.165Z,1.83
2023-09-15T13:27:50.620Z,3.40
2023-09-15T13:30:17.167Z,4.03
2023-09-15T13:32:46.281Z,2.80
2023-09-15T13:35:14.314Z,2.28
2023-09-15T13:37:41.111Z,6.80
2023-09-15T13:40:07.901Z,3.30
2023-09-15T13:42:37.152Z,4.10
2023-09-15T13:45:05.281Z,2.00
2023-09-15T13:47:33.776Z,1.80
2023-09-15T13:50:01.525Z,3.05
2023-09-15T13:52:31.637Z,2.42
2023-09-15T13:54:59.356Z,2.90
2023-09-15T13:57:29.002Z,3.90
2023-09-15T13:59:56.883Z,2.63
2023-09-15T14:02:25.045Z,5.18
2023-09-15T14:04:52.064Z,2.65
2023-09-15T14:07:18.789Z,2.63
2023-09-15T14:09:45.319Z,2.97
2023-09-15T14:12:13.006Z,2.05
2023-09-15T14:14:40.319Z,2.25
2023-09-15T14:17:08.991Z,2.80
2023-09-15T14:19:35.835Z,1.98
2023-09-15T14:22:03.479Z,1.98
2023-09-15T14:24:33.977Z,3.20
2023-09-15T14:27:02.158Z,2.15
2023-09-15T14:29:29.078Z,2.55
2023-09-15T14:31:56.320Z,4.82
2023-09-15T14:34:22.864Z,2.90
2023-09-15T14:36:49.417Z,2.92
2023-09-15T14:39:17.151Z,1.92
2023-09-15T14:41:44.100Z,2.28
2023-09-15T14:44:21.903Z,2.03
2023-09-15T14:46:48.766Z,2.42
2023-09-15T14:49:15.708Z,2.65
2023-09-15T14:51:43.005Z,3.35
2023-09-15T14:54:10.289Z,2.90
2023-09-15T14:56:37.511Z,2.50
2023-09-15T14:59:04.540Z,2.20
2023-09-15T15:01:31.227Z,1.88
2023-09-15T15:03:57.840Z,2.10
2023-09-15T15:06:24.517Z,2.00
2023-09-15T15:08:51.259Z,3.20
2023-09-15T15:11:18.166Z,4.05
2023-09-15T15:13:52.285Z,2.55
2023-09-15T15:16:19.086Z,2.30
2023-09-15T15:18:46.535Z,2.25
2023-09-15T15:21:13.646Z,3.22
2023-09-15T15:23:40.213Z,2.13
2023-09-15T15:26:08.360Z,2.13
2023-09-15T15:28:36.253Z,2.38
2023-09-15T15:31:03.026Z,2.58
2023-09-15T15:33:29.813Z,4.30
2023-09-15T15:36:04.085Z,2.33
2023-09-15T15:38:30.680Z,2.90
2023-09-15T15:41:05.001Z,2.75
2023-09-15T15:43:33.468Z,4.60
2023-09-15T15:46:02.263Z,3.53
2023-09-15T15:48:30.148Z,3.03
2023-09-15T15:50:57.009Z,3.00
2023-09-15T15:53:23.562Z,2.25
2023-09-15T15:55:50.599Z,2.78
2023-09-15T15:58:17.795Z,2.55
2023-09-15T16:00:45.648Z,2.85
2023-09-15T16:03:12.441Z,3.78
2023-09-15T16:05:41.709Z,2.53
2023-09-15T16:08:08.768Z,2.13
2023-09-15T16:10:35.723Z,2.38
2023-09-15T16:13:02.724Z,2.80
2023-09-15T16:15:29.456Z,2.28
2023-09-15T16:17:56.983Z,3.53
2023-09-15T16:20:23.611Z,6.32
2023-09-15T16:22:50.204Z,3.15
2023-09-15T16:25:17.440Z,2.17
2023-09-15T16:27:43.988Z,6.60
2023-09-15T16:30:10.911Z,3.22
2023-09-15T16:32:37.996Z,4.70
2023-09-15T16:35:05.104Z,4.53
2023-09-15T16:37:31.616Z,2.25
2023-09-15T16:39:58.951Z,3.33
2023-09-15T16:42:25.671Z,2.58
2023-09-15T16:44:52.301Z,2.00
2023-09-15T16:47:20.651Z,3.25
2023-09-15T16:49:47.391Z,2.30
2023-09-15T16:52:13.963Z,3.42
2023-09-15T16:54:40.606Z,2.53
2023-09-15T16:57:07.214Z,2.50
2023-09-15T16:59:36.136Z,3.13
2023-09-15T17:02:04.698Z,2.50
2023-09-15T17:04:51.001Z,4.15
2023-09-15T17:07:21.038Z,3.10
2023-09-15T17:09:47.583Z,2.80
2023-09-15T17:12:14.263Z,3.92
2023-09-15T17:14:40.874Z,3.85
2023-09-15T17:17:07.327Z,2.95
2023-09-15T17:19:34.444Z,2.40
2023-09-15T17:22:01.051Z,3.85
2023-09-15T17:24:27.582Z,2.85
2023-09-15T17:26:54.110Z,3.55
2023-09-15T17:29:20.838Z,2.85
2023-09-15T17:31:47.502Z,5.35
2023-09-15T17:34:15.724Z,3.53
2023-09-15T17:36:43.189Z,3.67
2023-09-15T17:39:11.246Z,3.38
2023-09-15T17:41:37.787Z,8.00
2023-09-15T17:44:04.311Z,2.63
2023-09-15T17:46:30.955Z,4.85
2023-09-15T17:48:58.314Z,4.22
2023-09-15T17:51:25.739Z,3.47
2023-09-15T17:53:52.520Z,5.13
2023-09-15T17:56:19.169Z,3.92
2023-09-15T17:58:45.719Z,3.47
2023-09-15T18:01:12.329Z,4.40
2023-09-15T18:03:38.824Z,5.15
2023-09-15T18:06:11.160Z,3.08
2023-09-15T18:08:38.340Z,2.83
2023-09-15T18:11:05.015Z,3.20
2023-09-15T18:13:31.588Z,3.15
2023-09-15T18:15:58.140Z,4.55
2023-09-15T18:18:24.751Z,3.13
2023-09-15T18:20:51.265Z,6.60
2023-09-15T18:23:18.476Z,4.10
2023-09-15T18:25:45.144Z,3.72
2023-09-15T18:28:11.654Z,3.92
2023-09-15T18:30:39.144Z,2.90
2023-09-15T18:33:05.769Z,3.55
2023-09-15T18:35:32.275Z,4.43
2023-09-15T18:38:01.549Z,3.63
2023-09-15T18:40:28.120Z,3.47
2023-09-15T18:42:54.951Z,4.95
2023-09-15T18:45:22.299Z,2.80
2023-09-15T18:47:49.427Z,4.22
2023-09-15T18:50:16.065Z,4.22
2023-09-15T18:52:42.518Z,3.10
2023-09-15T18:55:09.198Z,4.97
2023-09-15T18:57:38.734Z,3.70
2023-09-15T19:00:09.353Z,3.00
2023-09-15T19:02:37.842Z,3.10
2023-09-15T19:05:09.105Z,3.83
2023-09-15T19:07:36.440Z,4.55
2023-09-15T19:10:05.233Z,6.22
2023-09-15T19:12:31.913Z,3.85
2023-09-15T19:14:58.988Z,3.15
2023-09-15T19:17:32.786Z,3.30
2023-09-15T19:19:59.668Z,3.42
2023-09-15T19:22:26.204Z,3.75
2023-09-15T19:24:52.823Z,3.00
2023-09-15T19:27:19.452Z,3.50
2023-09-15T19:29:45.982Z,4.10
2023-09-15T19:32:12.522Z,3.50
2023-09-15T19:34:39.060Z,4.93
2023-09-15T19:37:05.528Z,3.72
2023-09-15T19:39:32.050Z,3.47
2023-09-15T19:41:58.555Z,3.92
2023-09-15T19:44:25.099Z,3.58
2023-09-15T19:46:51.632Z,3.67
2023-09-15T19:49:18.215Z,4.57
2023-09-15T19:51:44.923Z,3.47
2023-09-15T19:54:11.561Z,3.67
2023-09-15T19:56:38.062Z,3.60
2023-09-15T22:55:17.645Z,4.18
